Grissom ARB Airport
KGUS : now visible

Airfield :











YOU CAN JOIN US ON...

 
LOGIN :

Register | Disclaimer

   EN    FR    IT 

 









Legend :    VFR   Marginal VFR   IFR   Intensive IFR   Very Intensive IFR
Visi :
Ceiling :
>= 8 km
>= 3000ft
5 to 8 km
1000 to 3000 ft
1500m to 5 km
500 to 1000 ft
800 to 1500m
200 to 500 ft
< 800m
< 200 ft
Symbols :   Thunderstorms  Fog  Heavy snow  Heavy precipitations  Wind > 20 kt







- Airport Elevation : 812 ft


KGUS - Grissom ARB

CURRENT METAR :
  • 181856Z AUTO 01006KT 10SM FEW032 FEW100 SCT130 BKN160 BKN180 BKN210 30/25 A2996 RMK AO2 LTG DSNT W SLP142 T03000250 $

EXPIRED METARs :
  • 181819Z AUTO 01011G18KT 10SM SCT033 BKN040 BKN050 BKN140 BKN160 31/24 A2997 RMK AO2 WSHFT 17 SLP145 $
  • 181756Z AUTO 29008KT 10SM FEW110 SCT140 SCT170 BKN190 BKN210 31/24 A2996 RMK AO2 SLP142 T03100241 10313 20246 52004 $
  • 181656Z AUTO 28007KT 10SM SCT043 SCT160 BKN210 31/23 A2996 RMK AO2 SLP141 T03070233 $

TAF TAF KGUS
Valid from the 18 at 19:00 until the 20 at 01:00 UTC


181900Z 1819/2001 VRB06KT 9999 FEW030 BKN050 QNH2982INS
TEMPO 1819/1824 22015G25KT -TSRA BKN020CB
BECMG 1823/1824 23009KT 9999 SCT015 BKN050 QNH2986INS
BECMG 1907/1908 24009KT 8000 BR BKN015 QNH2988INS
BECMG 1911/1912 23009KT 9999 NSW SCT010 BKN030 QNH2989INS
BECMG 1914/1915 25012G18KT 9999 FEW030 BKN050 QNH2990INS TX35/1822Z TN24/1910Z
KZAU FIR / North America



MET'MAP, your aeronautical weather chart ! - Copyright ORBIFLY December 2007 - Disclaimer

ORBIFLY MET'MAP TEAM :

Programming & Development : Alexandra Zaïnal
Concept & Development : Baudouin d'Aumeries
Co-Development & Prog : Marc-Olivier Méhu
Technical & hardware support : Manuel Goepfert

Contact : metmap@orbifly.com




SOURCES & CREDITS :

   NOAA       Earth
Advisory